sensor_id;sensor_type;location;lat;lon;timestamp;temperature;humidity
40556;DHT22;26250;45.422;11.100;2023-07-02T17:48:28;31.80;61.40
40556;DHT22;26250;45.422;11.100;2023-07-02T17:50:56;31.70;62.70
40556;DHT22;26250;45.422;11.100;2023-07-02T17:53:23;31.70;61.80
40556;DHT22;26250;45.422;11.100;2023-07-02T17:55:50;31.70;61.90
40556;DHT22;26250;45.422;11.100;2023-07-02T17:58:17;31.70;61.80
40556;DHT22;26250;45.422;11.100;2023-07-02T18:00:47;31.70;63.30
40556;DHT22;26250;45.422;11.100;2023-07-02T18:03:13;31.60;63.20
40556;DHT22;26250;45.422;11.100;2023-07-02T18:05:40;31.60;62.90
40556;DHT22;26250;45.422;11.100;2023-07-02T18:08:07;31.60;62.60
40556;DHT22;26250;45.422;11.100;2023-07-02T18:10:34;31.60;62.80
40556;DHT22;26250;45.422;11.100;2023-07-02T18:13:01;31.60;62.80
40556;DHT22;26250;45.422;11.100;2023-07-02T18:15:28;31.60;62.40
40556;DHT22;26250;45.422;11.100;2023-07-02T18:17:55;31.60;62.80
40556;DHT22;26250;45.422;11.100;2023-07-02T18:20:21;31.50;62.50
40556;DHT22;26250;45.422;11.100;2023-07-02T18:22:49;31.50;63.20
40556;DHT22;26250;45.422;11.100;2023-07-02T18:25:16;31.50;63.90
40556;DHT22;26250;45.422;11.100;2023-07-02T18:27:43;31.50;63.70
40556;DHT22;26250;45.422;11.100;2023-07-02T18:30:10;31.50;63.40
40556;DHT22;26250;45.422;11.100;2023-07-02T18:32:39;31.40;63.30
40556;DHT22;26250;45.422;11.100;2023-07-02T18:35:06;31.40;65.60
40556;DHT22;26250;45.422;11.100;2023-07-02T18:37:35;31.30;66.80
40556;DHT22;26250;45.422;11.100;2023-07-02T18:40:05;31.20;67.60
40556;DHT22;26250;45.422;11.100;2023-07-02T18:42:32;31.00;67.80
40556;DHT22;26250;45.422;11.100;2023-07-02T18:44:59;30.90;68.30
40556;DHT22;26250;45.422;11.100;2023-07-02T18:47:26;30.70;68.80
40556;DHT22;26250;45.422;11.100;2023-07-02T18:49:53;30.60;69.80
40556;DHT22;26250;45.422;11.100;2023-07-02T18:52:20;30.50;70.50
40556;DHT22;26250;45.422;11.100;2023-07-02T18:54:47;30.30;70.50
40556;DHT22;26250;45.422;11.100;2023-07-02T18:57:14;30.20;70.70
40556;DHT22;26250;45.422;11.100;2023-07-02T18:59:45;30.10;70.90
40556;DHT22;26250;45.422;11.100;2023-07-02T19:02:14;30.00;71.70
40556;DHT22;26250;45.422;11.100;2023-07-02T19:04:41;30.10;71.50
40556;DHT22;26250;45.422;11.100;2023-07-02T19:07:13;30.00;71.20
40556;DHT22;26250;45.422;11.100;2023-07-02T19:09:40;29.80;72.00
40556;DHT22;26250;45.422;11.100;2023-07-02T19:12:07;29.70;72.20
40556;DHT22;26250;45.422;11.100;2023-07-02T19:14:34;29.70;72.60
40556;DHT22;26250;45.422;11.100;2023-07-02T19:17:11;29.80;72.50
40556;DHT22;26250;45.422;11.100;2023-07-02T19:19:39;29.80;72.50
40556;DHT22;26250;45.422;11.100;2023-07-02T19:22:08;29.80;72.40
40556;DHT22;26250;45.422;11.100;2023-07-02T19:24:35;29.60;73.30
40556;DHT22;26250;45.422;11.100;2023-07-02T19:27:02;29.40;73.70
40556;DHT22;26250;45.422;11.100;2023-07-02T19:29:29;29.30;75.10
40556;DHT22;26250;45.422;11.100;2023-07-02T19:31:57;29.30;76.10
40556;DHT22;26250;45.422;11.100;2023-07-02T19:34:24;29.30;76.10
40556;DHT22;26250;45.422;11.100;2023-07-02T19:36:51;29.30;76.20
40556;DHT22;26250;45.422;11.100;2023-07-02T19:39:18;29.30;76.40
40556;DHT22;26250;45.422;11.100;2023-07-02T19:41:46;29.30;76.30
40556;DHT22;26250;45.422;11.100;2023-07-02T19:44:16;29.30;76.60
40556;DHT22;26250;45.422;11.100;2023-07-02T19:46:44;29.20;76.80
40556;DHT22;26250;45.422;11.100;2023-07-02T19:49:12;29.20;76.80
40556;DHT22;26250;45.422;11.100;2023-07-02T19:51:41;29.20;77.00
40556;DHT22;26250;45.422;11.100;2023-07-02T19:54:15;29.20;77.30
40556;DHT22;26250;45.422;11.100;2023-07-02T19:56:41;29.20;77.00
40556;DHT22;26250;45.422;11.100;2023-07-02T19:59:08;29.10;76.80
